createdAt,value
2023-08-24T00:01:14.643Z,69.75
2023-08-24T00:03:43.722Z,69.90
2023-08-24T00:06:12.969Z,69.96
2023-08-24T00:08:41.852Z,70.01
2023-08-24T00:11:13.226Z,70.02
2023-08-24T00:13:51.005Z,69.93
2023-08-24T00:16:21.025Z,70.09
2023-08-24T00:18:50.040Z,70.17
2023-08-24T00:21:20.835Z,70.09
2023-08-24T00:23:49.584Z,70.06
2023-08-24T00:26:21.258Z,70.19
2023-08-24T00:28:49.688Z,70.22
2023-08-24T00:31:18.866Z,70.27
2023-08-24T00:33:47.578Z,70.02
2023-08-24T00:36:16.865Z,70.43
2023-08-24T00:38:45.835Z,70.56
2023-08-24T00:41:15.380Z,70.67
2023-08-24T00:43:44.084Z,70.74
2023-08-24T00:46:12.705Z,71.04
2023-08-24T00:48:41.409Z,71.19
2023-08-24T00:51:10.199Z,71.31
2023-08-24T00:53:39.576Z,71.40
2023-08-24T00:56:08.116Z,71.34
2023-08-24T00:58:36.859Z,71.41
2023-08-24T01:01:06.172Z,71.63
2023-08-24T01:03:34.811Z,71.69
2023-08-24T01:06:03.954Z,71.49
2023-08-24T01:08:32.797Z,71.71
2023-08-24T01:11:47.209Z,71.78
2023-08-24T01:14:21.658Z,71.78
2023-08-24T01:16:55.252Z,72.07
2023-08-24T01:19:50.680Z,72.11
2023-08-24T01:22:35.188Z,72.25
2023-08-24T01:25:25.022Z,72.34
2023-08-24T01:27:55.316Z,72.44
2023-08-24T01:30:23.889Z,72.60
2023-08-24T01:32:52.541Z,72.65
2023-08-24T01:35:21.442Z,72.69
2023-08-24T01:37:50.688Z,72.80
2023-08-24T01:40:29.366Z,72.62
2023-08-24T01:43:04.861Z,72.95
2023-08-24T01:45:35.290Z,73.08
2023-08-24T01:48:05.543Z,73.20
2023-08-24T01:50:34.923Z,73.19
2023-08-24T01:53:04.615Z,73.03
2023-08-24T01:55:33.218Z,73.65
2023-08-24T01:58:01.940Z,73.84
2023-08-24T02:00:30.662Z,74.04
2023-08-24T02:02:59.716Z,74.12
2023-08-24T02:05:30.355Z,73.94
2023-08-24T02:07:59.429Z,73.82
2023-08-24T02:10:27.906Z,74.18
2023-08-24T02:12:56.608Z,74.45
2023-08-24T02:15:25.181Z,74.48
2023-08-24T02:17:54.041Z,74.96
2023-08-24T02:20:22.707Z,75.05
2023-08-24T02:22:52.220Z,75.16
2023-08-24T02:25:20.917Z,75.05
2023-08-24T02:27:50.658Z,75.36
2023-08-24T02:30:19.524Z,75.60
2023-08-24T02:32:48.119Z,75.71
2023-08-24T02:35:16.752Z,75.81
2023-08-24T02:37:45.520Z,76.03
2023-08-24T02:40:14.101Z,76.06
2023-08-24T02:42:42.803Z,76.05
2023-08-24T02:45:12.108Z,76.20
2023-08-24T02:47:40.982Z,75.92
2023-08-24T02:50:10.041Z,76.24
2023-08-24T02:52:39.251Z,76.28
2023-08-24T02:55:08.390Z,76.40
2023-08-24T02:57:36.857Z,76.65
2023-08-24T03:00:08.260Z,76.59
2023-08-24T03:02:37.956Z,76.62
2023-08-24T03:05:07.186Z,76.44
2023-08-24T03:07:37.646Z,76.70
2023-08-24T03:10:06.666Z,76.65
2023-08-24T03:12:35.771Z,76.31
2023-08-24T03:15:11.133Z,76.83
2023-08-24T03:17:43.529Z,77.16
2023-08-24T03:20:12.523Z,77.30
2023-08-24T03:22:42.577Z,77.51
2023-08-24T03:25:11.426Z,77.72
2023-08-24T03:27:39.779Z,77.69
2023-08-24T03:30:11.804Z,78.02
2023-08-24T03:32:44.717Z,78.28
2023-08-24T03:35:13.457Z,78.23
2023-08-24T03:37:42.353Z,78.17
2023-08-24T03:40:11.497Z,78.40
2023-08-24T03:42:40.440Z,78.77
2023-08-24T03:45:09.613Z,78.61
2023-08-24T03:47:38.294Z,78.73
2023-08-24T03:50:07.430Z,78.55
2023-08-24T03:52:35.884Z,78.72
2023-08-24T03:55:04.836Z,78.83
2023-08-24T03:57:33.537Z,79.09
2023-08-24T04:00:07.858Z,79.09
2023-08-24T04:02:36.753Z,79.28
2023-08-24T04:05:05.768Z,79.40
2023-08-24T04:07:37.717Z,79.13
2023-08-24T04:10:07.065Z,79.02
2023-08-24T04:12:36.518Z,79.20
2023-08-24T04:15:06.236Z,79.65
2023-08-24T04:17:34.595Z,79.69
2023-08-24T04:20:03.407Z,79.97
2023-08-24T04:22:31.770Z,80.13
2023-08-24T04:25:01.438Z,80.00
2023-08-24T04:27:30.101Z,79.80
2023-08-24T04:29:58.802Z,79.92
2023-08-24T04:32:29.034Z,79.96
2023-08-24T04:34:57.873Z,80.03
2023-08-24T04:37:26.586Z,80.09
2023-08-24T04:39:55.254Z,80.10
2023-08-24T04:42:23.870Z,80.23
2023-08-24T04:44:52.696Z,80.45
2023-08-24T04:47:21.422Z,80.68
2023-08-24T04:49:50.118Z,80.75
2023-08-24T04:52:18.728Z,80.64
2023-08-24T04:54:47.916Z,80.85
2023-08-24T04:57:16.449Z,80.99
2023-08-24T04:59:45.633Z,80.98
2023-08-24T05:02:14.138Z,80.59
2023-08-24T05:04:42.900Z,80.86
2023-08-24T05:07:11.632Z,81.00
2023-08-24T05:09:40.314Z,81.10
2023-08-24T05:12:09.475Z,80.92
2023-08-24T05:14:38.218Z,81.25
2023-08-24T05:17:06.583Z,81.16
2023-08-24T05:19:35.041Z,81.39
2023-08-24T05:22:04.066Z,81.32
2023-08-24T05:24:32.997Z,81.42
2023-08-24T05:27:01.661Z,81.20
2023-08-24T05:29:30.117Z,80.96
2023-08-24T05:31:58.727Z,80.88
2023-08-24T05:34:27.304Z,80.92
2023-08-24T05:36:58.850Z,81.02
2023-08-24T05:39:27.499Z,81.17
2023-08-24T05:41:56.056Z,80.87
2023-08-24T05:44:25.129Z,80.98
2023-08-24T05:46:53.845Z,81.05
2023-08-24T05:49:22.717Z,80.76
2023-08-24T05:51:52.488Z,80.31
2023-08-24T05:54:21.453Z,80.04
2023-08-24T05:56:50.587Z,79.85
2023-08-24T05:59:19.183Z,79.32
2023-08-24T06:01:47.757Z,79.27
2023-08-24T06:04:16.782Z,79.31
2023-08-24T06:06:48.253Z,79.01
2023-08-24T06:09:23.272Z,79.04
2023-08-24T06:12:36.129Z,79.03
2023-08-24T06:15:20.753Z,78.95
2023-08-24T06:17:50.141Z,78.59
2023-08-24T06:20:22.917Z,78.30
2023-08-24T06:22:51.626Z,77.75
2023-08-24T06:25:20.709Z,77.55
2023-08-24T06:27:50.367Z,77.13
2023-08-24T06:30:19.823Z,76.88
2023-08-24T06:32:48.531Z,76.45
2023-08-24T06:35:17.592Z,76.25
2023-08-24T06:37:46.473Z,75.85
2023-08-24T06:40:15.785Z,75.94
2023-08-24T06:42:44.593Z,76.05
2023-08-24T06:45:13.434Z,75.66
2023-08-24T06:47:42.269Z,75.26
2023-08-24T06:50:11.483Z,74.91
2023-08-24T06:52:40.173Z,74.45
2023-08-24T06:55:13.392Z,74.53
2023-08-24T06:57:56.322Z,74.29
2023-08-24T07:00:26.996Z,73.93
2023-08-24T07:02:55.469Z,74.01
2023-08-24T07:05:24.664Z,73.86
2023-08-24T07:07:56.709Z,73.60
2023-08-24T07:10:25.672Z,73.48
2023-08-24T07:12:54.128Z,73.01
2023-08-24T07:15:22.446Z,72.79
2023-08-24T07:17:51.724Z,72.74
2023-08-24T07:20:21.549Z,73.07
2023-08-24T07:22:52.247Z,72.51
2023-08-24T07:25:25.121Z,71.85
2023-08-24T07:27:59.800Z,71.64
2023-08-24T07:30:34.044Z,70.55
2023-08-24T07:33:07.787Z,69.87
2023-08-24T07:35:36.809Z,69.42
2023-08-24T07:38:06.179Z,69.56
2023-08-24T07:40:34.869Z,67.97
2023-08-24T07:43:04.112Z,67.16
2023-08-24T07:45:35.052Z,66.66
2023-08-24T07:48:04.088Z,67.10
2023-08-24T07:50:33.533Z,68.15
2023-08-24T07:53:06.071Z,66.92
2023-08-24T07:55:38.096Z,66.88
2023-08-24T07:58:11.401Z,65.67
2023-08-24T08:00:42.418Z,61.53
2023-08-24T08:03:14.342Z,60.84
2023-08-24T08:05:42.984Z,59.06
2023-08-24T08:08:12.664Z,57.96
2023-08-24T08:10:42.631Z,57.07
2023-08-24T08:13:14.815Z,56.12
2023-08-24T08:15:47.835Z,55.80
2023-08-24T08:18:16.738Z,55.81
2023-08-24T08:20:45.615Z,55.54
2023-08-24T08:23:14.424Z,54.51
2023-08-24T08:25:43.930Z,54.01
2023-08-24T08:28:12.761Z,53.64
2023-08-24T08:30:41.894Z,53.49
2023-08-24T08:33:11.076Z,51.79
2023-08-24T08:35:41.325Z,50.82
2023-08-24T08:38:10.004Z,50.71
2023-08-24T08:40:39.178Z,50.71
2023-08-24T08:43:07.757Z,50.34
2023-08-24T08:45:36.454Z,48.15
2023-08-24T08:48:06.672Z,46.89
2023-08-24T08:50:36.885Z,44.24
2023-08-24T08:53:05.461Z,42.27
2023-08-24T08:55:34.143Z,40.51
2023-08-24T08:58:05.438Z,40.13
2023-08-24T09:00:34.853Z,38.12
2023-08-24T09:03:05.605Z,36.38
2023-08-24T09:05:36.955Z,35.52
2023-08-24T09:08:06.885Z,35.54
2023-08-24T09:10:35.572Z,35.15
2023-08-24T09:13:04.796Z,35.05
2023-08-24T09:15:37.837Z,35.21
2023-08-24T09:18:06.832Z,35.51
2023-08-24T09:20:47.063Z,34.65
2023-08-24T09:23:22.561Z,35.03
2023-08-24T09:25:51.538Z,34.40
2023-08-24T09:28:26.494Z,33.76
2023-08-24T09:31:25.698Z,33.79
2023-08-24T09:34:01.783Z,33.95
2023-08-24T09:36:37.077Z,34.31
2023-08-24T09:39:06.512Z,34.21
2023-08-24T09:41:43.161Z,34.26
2023-08-24T09:44:13.886Z,35.74
2023-08-24T09:46:45.230Z,35.08
2023-08-24T09:49:14.440Z,34.42
2023-08-24T09:51:46.462Z,34.53
2023-08-24T09:54:22.622Z,34.55
2023-08-24T09:56:54.450Z,34.87
2023-08-24T09:59:36.738Z,35.15
2023-08-24T10:02:17.008Z,35.38
2023-08-24T10:04:46.254Z,35.56
2023-08-24T10:07:22.277Z,35.75
2023-08-24T10:10:04.671Z,36.29
2023-08-24T10:12:40.400Z,36.37
2023-08-24T10:15:12.369Z,36.61
2023-08-24T10:17:41.401Z,35.65
2023-08-24T10:20:12.044Z,34.93
2023-08-24T10:22:42.863Z,33.35
2023-08-24T10:25:12.449Z,33.04
2023-08-24T10:27:44.781Z,31.61
2023-08-24T10:30:23.306Z,30.46
2023-08-24T10:32:55.199Z,29.82
2023-08-24T10:35:25.808Z,29.37
2023-08-24T10:37:55.139Z,28.80
2023-08-24T10:40:34.658Z,28.48
2023-08-24T10:43:07.375Z,28.05
2023-08-24T10:46:02.028Z,28.05
2023-08-24T10:48:50.840Z,28.61
2023-08-24T10:51:23.009Z,28.63
2023-08-24T10:53:55.806Z,28.71
2023-08-24T10:56:42.458Z,28.87
2023-08-24T10:59:17.774Z,29.32
2023-08-24T11:01:56.724Z,30.20
2023-08-24T11:04:26.892Z,30.61
2023-08-24T11:06:57.834Z,30.24
2023-08-24T11:09:28.899Z,29.70
2023-08-24T11:12:06.697Z,28.84
2023-08-24T11:14:56.063Z,27.80
2023-08-24T11:17:25.005Z,27.40
2023-08-24T11:19:56.081Z,27.73
2023-08-24T11:22:26.895Z,27.86
2023-08-24T11:24:55.603Z,28.13
2023-08-24T11:27:24.880Z,28.38
2023-08-24T11:30:01.813Z,28.51
2023-08-24T11:32:30.966Z,28.96
2023-08-24T11:34:59.643Z,29.30
2023-08-24T11:37:28.310Z,29.91
2023-08-24T11:39:57.096Z,30.24
2023-08-24T11:42:25.759Z,30.17
2023-08-24T11:44:54.638Z,29.67
2023-08-24T11:47:24.970Z,29.44
2023-08-24T11:49:53.621Z,28.79
2023-08-24T11:52:22.134Z,28.37
2023-08-24T11:54:52.952Z,27.21
2023-08-24T11:57:21.585Z,26.75
2023-08-24T11:59:50.312Z,25.35
2023-08-24T12:02:19.528Z,24.94
2023-08-24T12:04:50.190Z,24.79
2023-08-24T12:07:19.629Z,24.32
2023-08-24T12:09:48.613Z,24.30
2023-08-24T12:12:22.275Z,24.77
2023-08-24T12:14:51.372Z,25.04
2023-08-24T12:17:20.364Z,25.33
2023-08-24T12:20:01.771Z,25.66
2023-08-24T12:22:31.054Z,26.08
2023-08-24T12:24:59.721Z,25.92
2023-08-24T12:27:28.824Z,25.98
2023-08-24T12:30:08.889Z,26.13
2023-08-24T12:32:51.257Z,26.54
2023-08-24T12:35:20.497Z,26.80
2023-08-24T12:37:49.339Z,27.32
2023-08-24T12:40:24.197Z,27.39
2023-08-24T12:42:56.134Z,27.99
2023-08-24T12:45:28.624Z,28.58
2023-08-24T12:47:58.495Z,28.95
2023-08-24T12:50:30.371Z,28.89
2023-08-24T12:53:01.542Z,29.41
2023-08-24T12:55:31.035Z,30.28
2023-08-24T12:58:04.720Z,30.69
2023-08-24T13:00:33.835Z,31.02
2023-08-24T13:03:05.438Z,31.31
2023-08-24T13:05:35.303Z,31.30
2023-08-24T13:08:04.231Z,31.79
2023-08-24T13:10:32.941Z,32.20
2023-08-24T13:13:01.905Z,32.41
2023-08-24T13:15:34.718Z,32.69
2023-08-24T13:18:04.106Z,33.31
2023-08-24T13:20:32.811Z,33.50
2023-08-24T13:23:01.499Z,33.70
2023-08-24T13:25:34.541Z,34.15
2023-08-24T13:28:03.753Z,34.81
2023-08-24T13:30:32.424Z,34.86
2023-08-24T13:33:00.978Z,35.14
2023-08-24T13:35:29.829Z,35.56
2023-08-24T13:37:58.545Z,35.66
2023-08-24T13:40:27.361Z,36.17
2023-08-24T13:42:55.930Z,36.26
2023-08-24T13:45:24.858Z,36.80
2023-08-24T13:47:53.720Z,37.10
2023-08-24T13:50:22.207Z,37.20
2023-08-24T13:52:51.376Z,37.69
2023-08-24T13:55:20.102Z,37.71
2023-08-24T13:57:49.147Z,38.08
2023-08-24T14:00:18.184Z,38.37
2023-08-24T14:02:49.764Z,38.76
2023-08-24T14:05:18.991Z,38.85
2023-08-24T14:07:47.648Z,38.80
2023-08-24T14:10:16.216Z,39.07
2023-08-24T14:12:44.780Z,39.46
2023-08-24T14:15:13.308Z,39.97
2023-08-24T14:17:42.004Z,40.04
2023-08-24T14:20:10.997Z,40.15
2023-08-24T14:22:42.529Z,40.39
2023-08-24T14:25:10.967Z,40.63
2023-08-24T14:27:42.585Z,40.49
2023-08-24T14:30:13.933Z,40.97
2023-08-24T14:32:44.645Z,40.94
2023-08-24T14:35:13.488Z,41.07
2023-08-24T14:37:42.569Z,41.41
2023-08-24T14:40:11.908Z,41.59
2023-08-24T14:42:40.258Z,41.54
2023-08-24T14:45:09.259Z,41.65
2023-08-24T14:47:37.814Z,41.95
2023-08-24T14:50:07.544Z,42.34
2023-08-24T14:52:39.514Z,42.07
2023-08-24T14:55:10.637Z,42.35
2023-08-24T14:57:39.076Z,42.37
2023-08-24T15:00:11.434Z,42.89
2023-08-24T15:02:41.111Z,43.06
2023-08-24T15:05:09.648Z,43.28
2023-08-24T15:07:38.195Z,43.51
2023-08-24T15:10:07.787Z,43.77
2023-08-24T15:12:36.691Z,44.13
2023-08-24T15:15:07.971Z,44.34
2023-08-24T15:17:37.661Z,44.29
2023-08-24T15:20:09.678Z,44.38
2023-08-24T15:22:38.371Z,44.67
2023-08-24T15:25:08.124Z,44.84
2023-08-24T15:27:37.663Z,44.84
2023-08-24T15:30:09.791Z,45.27
2023-08-24T15:32:38.519Z,45.35
2023-08-24T15:35:07.784Z,45.48
2023-08-24T15:37:36.886Z,45.68
2023-08-24T15:40:06.069Z,45.83
2023-08-24T15:42:34.691Z,46.02
2023-08-24T15:45:03.614Z,45.91
2023-08-24T15:47:32.464Z,46.33
2023-08-24T15:50:01.605Z,46.45
2023-08-24T15:52:30.387Z,46.59
2023-08-24T15:54:59.151Z,46.90
2023-08-24T15:57:27.878Z,47.29
2023-08-24T15:59:56.942Z,47.64
2023-08-24T16:02:25.784Z,47.85
2023-08-24T16:04:57.050Z,47.82
2023-08-24T16:07:25.799Z,48.15
2023-08-24T16:09:54.373Z,48.23
2023-08-24T16:12:24.354Z,48.40
2023-08-24T16:14:58.512Z,48.63
2023-08-24T16:17:27.083Z,48.86
2023-08-24T16:19:55.811Z,49.10
2023-08-24T16:22:24.358Z,49.35
2023-08-24T16:24:52.948Z,49.62
2023-08-24T16:27:21.477Z,49.81
2023-08-24T16:29:49.879Z,50.00
2023-08-24T16:32:18.635Z,50.20
2023-08-24T16:34:47.551Z,50.30
2023-08-24T16:37:16.617Z,50.49
2023-08-24T16:39:45.533Z,50.62
2023-08-24T16:42:19.851Z,50.82
2023-08-24T16:44:48.939Z,51.04
2023-08-24T16:47:17.965Z,51.17
2023-08-24T16:49:46.634Z,51.31
2023-08-24T16:52:15.163Z,51.46
2023-08-24T16:54:43.980Z,51.56
2023-08-24T16:57:12.655Z,51.78
2023-08-24T16:59:41.070Z,52.08
2023-08-24T17:02:10.464Z,52.21
2023-08-24T17:04:38.950Z,52.08
2023-08-24T17:07:07.853Z,52.26
2023-08-24T17:09:36.691Z,52.79
2023-08-24T17:12:05.514Z,52.90
2023-08-24T17:14:33.945Z,53.44
2023-08-24T17:17:02.491Z,53.23
2023-08-24T17:19:33.838Z,53.93
2023-08-24T17:22:02.761Z,54.04
2023-08-24T17:24:31.542Z,53.78
2023-08-24T17:27:03.931Z,53.76
2023-08-24T17:29:32.832Z,54.46
2023-08-24T17:32:01.386Z,55.20
2023-08-24T17:34:30.002Z,55.70
2023-08-24T17:36:58.652Z,56.16
2023-08-24T17:39:29.295Z,56.68
2023-08-24T17:41:57.971Z,57.09
2023-08-24T17:44:27.799Z,57.51
2023-08-24T17:46:56.850Z,57.75
2023-08-24T17:49:25.580Z,57.99
2023-08-24T17:51:54.170Z,58.22
2023-08-24T17:54:25.876Z,58.53
2023-08-24T17:56:55.208Z,58.84
2023-08-24T17:59:23.835Z,58.95
2023-08-24T18:01:52.359Z,59.17
2023-08-24T18:04:21.437Z,59.17
2023-08-24T18:06:53.136Z,59.35
2023-08-24T18:09:21.688Z,59.35
2023-08-24T18:11:50.205Z,59.66
2023-08-24T18:14:19.090Z,60.06
2023-08-24T18:16:48.837Z,60.32
2023-08-24T18:19:17.816Z,60.62
2023-08-24T18:21:46.515Z,60.86
2023-08-24T18:24:14.983Z,60.89
2023-08-24T18:26:43.757Z,60.92
2023-08-24T18:29:12.458Z,61.40
2023-08-24T18:31:42.282Z,61.68
2023-08-24T18:34:10.802Z,61.80
2023-08-24T18:36:39.921Z,62.07
2023-08-24T18:39:09.388Z,62.27
2023-08-24T18:41:38.019Z,62.50
2023-08-24T18:44:06.487Z,62.80
2023-08-24T18:46:35.133Z,62.92
2023-08-24T18:49:04.550Z,63.10
2023-08-24T18:51:33.164Z,63.32
2023-08-24T18:54:01.899Z,63.45
2023-08-24T18:56:30.564Z,63.59
2023-08-24T18:58:58.970Z,63.79
2023-08-24T19:01:27.668Z,63.94
2023-08-24T19:03:56.189Z,64.12
2023-08-24T19:06:30.915Z,64.19
2023-08-24T19:09:07.762Z,64.24
2023-08-24T19:11:36.906Z,64.24
2023-08-24T19:14:05.869Z,64.30
2023-08-24T19:16:34.361Z,64.77
2023-08-24T19:19:03.019Z,65.13
2023-08-24T19:21:31.636Z,65.53
2023-08-24T19:24:00.186Z,65.77
2023-08-24T19:26:28.932Z,65.94
2023-08-24T19:28:57.722Z,66.18
2023-08-24T19:31:26.805Z,66.45
2023-08-24T19:33:55.396Z,66.58
2023-08-24T19:36:24.208Z,66.77
2023-08-24T19:38:52.747Z,66.88
2023-08-24T19:41:21.346Z,67.07
2023-08-24T19:43:50.113Z,67.34
2023-08-24T19:46:18.784Z,67.46
2023-08-24T19:48:47.840Z,67.66
2023-08-24T19:51:16.349Z,67.81
2023-08-24T19:53:45.145Z,68.05
2023-08-24T19:56:13.895Z,68.14
2023-08-24T19:58:42.652Z,68.33
2023-08-24T20:01:11.883Z,68.46
2023-08-24T20:03:40.999Z,68.29
2023-08-24T20:06:26.863Z,68.34
2023-08-24T20:08:55.812Z,68.44
2023-08-24T20:11:31.699Z,68.67
2023-08-24T20:14:00.893Z,68.94
2023-08-24T20:16:29.606Z,69.05
2023-08-24T20:18:58.499Z,69.14
2023-08-24T20:21:33.574Z,69.36
2023-08-24T20:24:02.128Z,69.62
2023-08-24T20:26:30.554Z,69.93
2023-08-24T20:28:59.362Z,70.12
2023-08-24T20:31:28.652Z,70.27
2023-08-24T20:33:57.752Z,70.46
2023-08-24T20:36:27.146Z,70.35
2023-08-24T20:38:55.710Z,70.57
2023-08-24T20:41:24.258Z,70.70
2023-08-24T20:43:52.875Z,70.93
2023-08-24T20:46:21.588Z,71.16
2023-08-24T20:48:50.204Z,70.91
2023-08-24T20:51:18.780Z,71.17
2023-08-24T20:53:47.652Z,71.61
2023-08-24T20:56:17.252Z,71.85
2023-08-24T20:58:46.413Z,71.97
2023-08-24T21:01:14.967Z,72.09
2023-08-24T21:03:43.681Z,72.06
2023-08-24T21:06:12.239Z,72.16
2023-08-24T21:08:41.373Z,72.10
2023-08-24T21:11:11.190Z,72.35
2023-08-24T21:13:42.765Z,72.49
2023-08-24T21:16:30.669Z,72.77
2023-08-24T21:18:59.548Z,73.03
2023-08-24T21:21:28.180Z,73.05
2023-08-24T21:23:57.210Z,73.18
2023-08-24T21:26:27.256Z,73.61
2023-08-24T21:28:56.671Z,73.66
2023-08-24T21:31:25.958Z,73.91
2023-08-24T21:33:54.786Z,74.16
2023-08-24T21:36:23.341Z,74.34
2023-08-24T21:38:52.089Z,74.40
2023-08-24T21:41:20.553Z,74.43
2023-08-24T21:43:49.412Z,74.39
2023-08-24T21:46:18.368Z,74.59
2023-08-24T21:48:47.038Z,74.62
2023-08-24T21:51:15.563Z,74.84
2023-08-24T21:53:44.226Z,74.87
2023-08-24T21:56:12.877Z,74.81
2023-08-24T21:58:41.398Z,75.09
2023-08-24T22:01:10.113Z,74.87
2023-08-24T22:03:38.728Z,74.94
2023-08-24T22:06:07.249Z,75.26
2023-08-24T22:08:36.392Z,75.14
2023-08-24T22:11:04.957Z,75.17
2023-08-24T22:13:33.558Z,75.53
2023-08-24T22:16:02.124Z,75.86
2023-08-24T22:18:30.732Z,76.25
2023-08-24T22:20:59.244Z,76.61
2023-08-24T22:23:27.945Z,76.71
2023-08-24T22:25:56.462Z,76.56
2023-08-24T22:28:25.021Z,76.63
2023-08-24T22:30:54.908Z,76.73
2023-08-24T22:33:23.495Z,77.02
2023-08-24T22:35:53.199Z,77.22
2023-08-24T22:38:22.523Z,77.47
2023-08-24T22:40:51.227Z,77.57
2023-08-24T22:43:19.666Z,77.74
2023-08-24T22:45:48.302Z,77.79
2023-08-24T22:48:17.963Z,77.87
2023-08-24T22:50:47.415Z,78.00
2023-08-24T22:53:16.830Z,78.11
2023-08-24T22:55:47.309Z,78.18
2023-08-24T22:58:16.518Z,78.21
2023-08-24T23:00:45.109Z,78.14
2023-08-24T23:03:13.765Z,78.29
2023-08-24T23:05:42.527Z,78.38
2023-08-24T23:08:11.706Z,78.50
2023-08-24T23:10:40.309Z,78.79
2023-08-24T23:13:08.888Z,79.02
2023-08-24T23:15:37.543Z,79.03
2023-08-24T23:18:06.580Z,79.16
2023-08-24T23:20:36.451Z,79.26
2023-08-24T23:23:05.228Z,79.23
2023-08-24T23:25:34.213Z,79.21
2023-08-24T23:28:02.889Z,79.43
2023-08-24T23:30:31.308Z,79.36
2023-08-24T23:32:59.975Z,79.50
2023-08-24T23:35:28.724Z,79.58
2023-08-24T23:37:57.220Z,79.71
2023-08-24T23:40:25.531Z,79.77
2023-08-24T23:42:54.228Z,79.84
2023-08-24T23:45:22.817Z,79.95
2023-08-24T23:47:51.704Z,79.95
2023-08-24T23:50:20.569Z,79.87
2023-08-24T23:52:49.435Z,79.80
2023-08-24T23:55:18.072Z,80.05
2023-08-24T23:57:46.771Z,80.23
